createdAt,value
2022-11-18T05:16:23.948Z,16.06
2022-11-18T05:18:57.914Z,16.12
2022-11-18T05:21:25.516Z,15.82
2022-11-18T05:23:52.031Z,15.00
2022-11-18T05:26:18.558Z,14.84
2022-11-18T05:28:46.867Z,14.44
2022-11-18T05:31:16.464Z,14.35
2022-11-18T05:33:44.313Z,14.17
2022-11-18T05:36:16.787Z,14.05
2022-11-18T05:38:47.526Z,14.27
2022-11-18T05:41:35.164Z,14.48
2022-11-18T05:44:03.099Z,13.68
2022-11-18T05:46:30.629Z,13.89
2022-11-18T05:48:57.550Z,13.77
2022-11-18T05:51:24.261Z,13.33
2022-11-18T05:53:52.314Z,14.32
2022-11-18T05:56:31.305Z,14.69
2022-11-18T05:58:57.820Z,14.55
2022-11-18T06:01:28.627Z,15.01
2022-11-18T06:03:55.253Z,15.53
2022-11-18T06:06:23.481Z,14.63
2022-11-18T06:09:01.754Z,13.92
2022-11-18T06:11:29.373Z,14.29
2022-11-18T06:14:08.962Z,13.41
2022-11-18T06:16:41.269Z,14.59
2022-11-18T06:19:09.325Z,14.78
2022-11-18T06:21:36.996Z,14.57
2022-11-18T06:24:05.651Z,15.17
2022-11-18T06:26:33.237Z,14.27
2022-11-18T06:28:59.756Z,13.83
2022-11-18T06:31:33.458Z,14.34
2022-11-18T06:33:59.962Z,14.16
2022-11-18T06:36:26.765Z,14.04
2022-11-18T06:38:53.197Z,14.09
2022-11-18T06:41:19.785Z,14.25
2022-11-18T06:43:46.331Z,13.32
2022-11-18T06:46:34.559Z,13.63
2022-11-18T06:49:01.833Z,13.28
2022-11-18T06:51:29.670Z,13.49
2022-11-18T06:53:58.299Z,14.42
2022-11-18T06:56:30.949Z,14.54
2022-11-18T06:59:00.581Z,14.47
2022-11-18T07:01:28.996Z,14.62
2022-11-18T07:03:58.270Z,14.92
2022-11-18T07:06:27.641Z,14.47
2022-11-18T07:08:54.387Z,14.39
2022-11-18T07:11:25.852Z,14.86
2022-11-18T07:13:52.650Z,14.92
2022-11-18T07:16:21.814Z,14.93
2022-11-18T07:18:49.767Z,14.48
2022-11-18T07:21:18.593Z,15.08
2022-11-18T07:23:45.623Z,14.90
2022-11-18T07:26:15.096Z,14.70
2022-11-18T07:28:42.330Z,15.14
2022-11-18T07:31:14.191Z,15.60
2022-11-18T07:33:42.386Z,14.45
2022-11-18T07:36:14.647Z,14.79
2022-11-18T07:38:42.003Z,14.85
2022-11-18T07:41:11.896Z,14.94
2022-11-18T07:43:38.781Z,14.70
2022-11-18T07:46:14.408Z,15.07
2022-11-18T07:48:43.890Z,15.13
2022-11-18T07:51:12.170Z,15.12
2022-11-18T07:53:40.867Z,14.38
2022-11-18T07:56:10.014Z,14.21
2022-11-18T07:58:36.952Z,15.04
2022-11-18T08:01:08.814Z,14.93
2022-11-18T08:03:35.618Z,14.22
2022-11-18T08:06:06.405Z,13.22
2022-11-18T08:08:35.972Z,13.87
2022-11-18T08:11:10.138Z,14.27
2022-11-18T08:14:04.223Z,13.88
2022-11-18T08:16:30.848Z,13.95
2022-11-18T08:18:58.920Z,14.15
2022-11-18T08:21:29.592Z,14.36
2022-11-18T08:23:57.534Z,13.87
2022-11-18T08:26:25.038Z,14.03
2022-11-18T08:28:52.066Z,14.08
2022-11-18T08:31:21.611Z,13.74
2022-11-18T08:33:48.390Z,13.78
2022-11-18T08:36:20.782Z,13.45
2022-11-18T08:38:47.493Z,13.55
2022-11-18T08:41:15.608Z,14.24
2022-11-18T08:43:42.280Z,14.09
2022-11-18T08:46:08.865Z,13.83
2022-11-18T08:48:35.324Z,14.57
2022-11-18T08:51:03.582Z,13.92
2022-11-18T08:53:30.079Z,14.61
2022-11-18T08:55:58.375Z,13.97
2022-11-18T08:58:26.031Z,13.98
2022-11-18T09:00:52.864Z,13.81
2022-11-18T09:03:19.966Z,13.36
2022-11-18T09:05:47.378Z,12.89
2022-11-18T09:08:13.950Z,13.38
2022-11-18T09:10:40.449Z,13.95
2022-11-18T09:13:38.624Z,13.17
2022-11-18T09:15:53.469Z,13.54
2022-11-18T09:18:20.043Z,14.04
2022-11-18T09:21:02.906Z,13.70
2022-11-18T09:23:32.343Z,13.35
2022-11-18T09:26:04.816Z,14.24
2022-11-18T09:28:31.699Z,13.43
2022-11-18T09:30:58.211Z,13.41
2022-11-18T09:33:25.016Z,13.74
2022-11-18T09:35:51.673Z,13.73
2022-11-18T09:38:18.222Z,13.91
2022-11-18T09:41:12.507Z,13.76
2022-11-18T09:44:06.141Z,13.60
2022-11-18T09:46:57.344Z,14.32
2022-11-18T09:49:30.224Z,13.93
2022-11-18T09:51:57.919Z,13.57
2022-11-18T09:54:38.421Z,13.35
2022-11-18T09:57:41.909Z,13.28
2022-11-18T10:00:15.686Z,13.77
2022-11-18T10:03:04.826Z,13.29
2022-11-18T10:05:49.905Z,13.48
2022-11-18T10:08:19.372Z,13.34
2022-11-18T10:10:56.580Z,14.16
2022-11-18T10:13:44.880Z,14.00
2022-11-18T10:16:29.243Z,13.88
2022-11-18T10:19:24.277Z,13.50
2022-11-18T10:25:23.054Z,14.61
2022-11-18T10:27:51.318Z,14.46
2022-11-18T10:30:24.724Z,14.63
2022-11-18T10:33:02.125Z,14.63
2022-11-18T10:35:37.327Z,14.70
2022-11-18T10:38:12.781Z,14.42
2022-11-18T10:41:06.455Z,14.09
2022-11-18T10:43:52.520Z,14.35
2022-11-18T10:46:26.256Z,14.03
2022-11-18T10:49:17.291Z,13.93
2022-11-18T10:51:48.482Z,13.90
2022-11-18T10:54:22.736Z,13.92
2022-11-18T10:56:58.747Z,13.33
2022-11-18T10:59:35.083Z,13.65
2022-11-18T11:02:24.257Z,14.52
2022-11-18T11:05:41.170Z,14.53
2022-11-18T11:08:39.323Z,13.50
2022-11-18T11:11:05.872Z,13.34
2022-11-18T11:13:37.488Z,13.54
2022-11-18T11:16:07.191Z,15.15
2022-11-18T11:18:41.443Z,15.24
2022-11-18T11:21:22.700Z,15.04
2022-11-18T11:24:42.608Z,15.22
2022-11-18T11:30:25.246Z,14.67
2022-11-18T11:33:24.744Z,14.74
2022-11-18T11:35:58.095Z,14.35
2022-11-18T11:38:55.097Z,14.92
2022-11-18T11:41:24.801Z,14.18
2022-11-18T11:44:40.325Z,15.40
2022-11-18T11:47:47.912Z,14.50
2022-11-18T11:51:00.000Z,15.69
2022-11-18T11:54:00.070Z,15.52
2022-11-18T11:56:38.199Z,15.28
2022-11-18T11:59:16.387Z,14.81
2022-11-18T12:01:53.571Z,14.84
2022-11-18T12:04:42.880Z,15.11
2022-11-18T12:07:18.732Z,14.14
2022-11-18T12:10:13.177Z,14.98
2022-11-18T12:13:08.894Z,15.98
2022-11-18T12:16:05.150Z,16.76
2022-11-18T12:18:41.878Z,15.96
2022-11-18T12:21:08.642Z,15.07
2022-11-18T12:24:18.157Z,16.66
2022-11-18T12:26:47.149Z,16.89
2022-11-18T12:29:23.770Z,15.28
2022-11-18T12:32:04.497Z,15.40
2022-11-18T12:34:41.503Z,14.53
2022-11-18T12:37:38.779Z,15.77
2022-11-18T12:40:05.776Z,16.21
2022-11-18T12:42:56.871Z,14.61
2022-11-18T12:45:46.340Z,14.08
2022-11-18T12:48:39.019Z,13.89
2022-11-18T12:51:14.504Z,14.56
2022-11-18T12:53:43.879Z,14.11
2022-11-18T12:56:37.102Z,14.37
2022-11-18T12:59:05.621Z,14.21
2022-11-18T13:01:36.416Z,14.51
2022-11-18T13:04:14.742Z,14.49
2022-11-18T13:06:43.289Z,14.55
2022-11-18T13:09:20.651Z,14.36
2022-11-18T13:12:01.241Z,14.79
2022-11-18T13:14:53.171Z,14.76
2022-11-18T13:17:50.352Z,14.97
2022-11-18T13:20:37.637Z,15.70
2022-11-18T13:23:28.816Z,15.39
2022-11-18T13:26:03.987Z,15.10
2022-11-18T13:28:48.319Z,15.16
2022-11-18T13:31:31.472Z,15.73
2022-11-18T13:34:03.011Z,15.53
2022-11-18T13:36:31.638Z,15.85
2022-11-18T13:39:04.457Z,16.61
2022-11-18T13:41:33.662Z,17.07
2022-11-18T13:44:25.162Z,19.40
2022-11-18T13:47:09.538Z,21.03
2022-11-18T13:49:51.162Z,20.79
2022-11-18T13:52:26.204Z,21.95
2022-11-18T13:54:55.021Z,21.02
2022-11-18T13:57:25.722Z,20.29
2022-11-18T13:59:54.883Z,20.80
2022-11-18T14:02:22.204Z,21.19
2022-11-18T14:04:59.807Z,21.36
2022-11-18T14:07:35.565Z,21.06
2022-11-18T14:10:05.401Z,20.06
2022-11-18T14:12:34.130Z,20.29
2022-11-18T14:15:29.686Z,18.82
2022-11-18T14:17:58.989Z,19.08
2022-11-18T14:20:30.244Z,18.64
2022-11-18T14:23:01.541Z,18.65
2022-11-18T14:25:36.068Z,18.57
2022-11-18T14:28:33.739Z,18.26
2022-11-18T14:31:05.029Z,18.57
2022-11-18T14:33:33.150Z,18.43
2022-11-18T14:36:00.907Z,18.00
2022-11-18T14:39:11.781Z,17.81
2022-11-18T14:41:49.138Z,17.64
2022-11-18T14:44:17.068Z,17.69
2022-11-18T14:46:46.771Z,17.13
2022-11-18T14:49:18.267Z,17.01
2022-11-18T14:51:46.113Z,16.61
2022-11-18T14:54:17.224Z,16.63
2022-11-18T14:57:01.450Z,16.90
2022-11-18T14:59:28.214Z,16.16
2022-11-18T15:01:56.276Z,15.89
2022-11-18T15:04:23.210Z,15.57
2022-11-18T15:06:53.990Z,15.76
2022-11-18T15:09:27.138Z,15.74
2022-11-18T15:11:54.775Z,16.58
2022-11-18T15:14:21.826Z,16.49
2022-11-18T15:16:48.581Z,16.46
2022-11-18T15:19:16.078Z,16.26
2022-11-18T15:21:43.588Z,15.72
2022-11-18T15:24:11.113Z,15.23
2022-11-18T15:26:44.053Z,15.31
2022-11-18T15:29:25.003Z,14.76
2022-11-18T15:32:18.763Z,14.54
2022-11-18T15:34:45.328Z,14.95
2022-11-18T15:37:13.070Z,15.23
2022-11-18T15:39:39.590Z,15.14
2022-11-18T15:42:06.119Z,15.08
2022-11-18T15:44:32.561Z,14.93
2022-11-18T15:47:00.169Z,15.03
2022-11-18T15:49:26.660Z,15.22
2022-11-18T15:51:53.243Z,15.42
2022-11-18T15:54:20.096Z,15.33
2022-11-18T15:56:46.794Z,15.33
2022-11-18T15:59:15.224Z,15.20
2022-11-18T16:01:43.982Z,14.92
2022-11-18T16:04:12.492Z,14.97
2022-11-18T16:06:39.482Z,14.26
2022-11-18T16:09:06.962Z,14.59
2022-11-18T16:11:52.261Z,14.74
2022-11-18T16:14:20.541Z,14.55
2022-11-18T16:16:49.349Z,14.75
2022-11-18T16:19:19.113Z,14.88
2022-11-18T16:21:51.863Z,14.83
2022-11-18T16:24:24.090Z,14.67
2022-11-18T16:26:50.809Z,14.80
2022-11-18T16:29:18.507Z,14.82
2022-11-18T16:32:11.509Z,14.78
2022-11-18T16:34:38.432Z,14.66
2022-11-18T16:37:06.138Z,14.64
2022-11-18T16:39:32.630Z,14.38
2022-11-18T16:42:07.794Z,14.26
2022-11-18T16:44:35.543Z,14.03
2022-11-18T16:47:12.655Z,13.99
2022-11-18T16:49:40.720Z,14.26
2022-11-18T16:52:10.502Z,14.27
2022-11-18T16:54:44.437Z,14.04
2022-11-18T16:57:12.241Z,13.97
2022-11-18T16:59:51.288Z,14.22
2022-11-18T17:02:20.694Z,13.95
2022-11-18T17:04:50.200Z,13.90
2022-11-18T17:07:17.893Z,13.80
2022-11-18T17:09:44.448Z,13.95
2022-11-18T17:12:10.974Z,14.04
2022-11-18T17:14:39.969Z,14.14
2022-11-18T17:17:07.692Z,14.20
2022-11-18T17:19:34.146Z,14.30
2022-11-18T17:22:00.670Z,14.15
2022-11-18T17:24:27.209Z,14.24
2022-11-18T17:26:55.409Z,14.24
2022-11-18T17:29:22.220Z,14.07
2022-11-18T17:31:49.169Z,13.62
2022-11-18T17:34:16.562Z,13.82
2022-11-18T17:36:47.131Z,13.91
2022-11-18T17:39:13.801Z,13.97
2022-11-18T17:41:58.990Z,13.35
2022-11-18T17:44:27.527Z,14.03
2022-11-18T17:46:54.087Z,13.67
2022-11-18T17:49:23.470Z,13.17
2022-11-18T17:51:51.321Z,12.74
2022-11-18T17:54:18.765Z,12.60
2022-11-18T17:56:45.576Z,12.94
2022-11-18T17:59:14.377Z,12.57
2022-11-18T18:01:41.124Z,12.45
2022-11-18T18:04:08.558Z,12.42
2022-11-18T18:06:38.146Z,12.35
2022-11-18T18:09:04.672Z,13.10
2022-11-18T18:11:31.253Z,13.44
2022-11-18T18:14:12.839Z,12.79
2022-11-18T18:16:45.157Z,13.13
2022-11-18T18:19:20.429Z,13.38
2022-11-18T18:21:47.536Z,13.50
2022-11-18T18:24:20.072Z,13.56
2022-11-18T18:26:47.199Z,13.70
2022-11-18T18:29:14.349Z,13.73
2022-11-18T18:31:41.225Z,13.79
2022-11-18T18:34:08.040Z,13.82
2022-11-18T18:36:38.269Z,13.72
2022-11-18T18:39:05.063Z,13.40
2022-11-18T18:41:57.464Z,13.44
2022-11-18T18:44:44.259Z,12.82
2022-11-18T18:47:10.794Z,12.59
2022-11-18T18:49:37.284Z,13.08
2022-11-18T18:52:03.982Z,13.03
2022-11-18T18:54:30.821Z,12.70
2022-11-18T18:56:57.416Z,12.96
2022-11-18T18:59:23.926Z,12.76
2022-11-18T19:01:50.635Z,13.09
2022-11-18T19:04:18.091Z,13.22
2022-11-18T19:06:54.928Z,13.20
2022-11-18T19:09:28.581Z,13.18
2022-11-18T19:12:20.365Z,13.19
2022-11-18T19:14:53.215Z,13.08
2022-11-18T19:20:50.069Z,13.30
2022-11-18T19:23:35.839Z,13.36
2022-11-18T19:26:06.371Z,13.02
2022-11-18T19:28:35.813Z,12.94
2022-11-18T19:31:02.378Z,12.96
2022-11-18T19:33:33.314Z,13.06
2022-11-18T19:36:05.091Z,13.32
2022-11-18T19:38:36.779Z,13.17
2022-11-18T19:41:09.456Z,13.21
2022-11-18T19:43:36.318Z,13.09
2022-11-18T19:46:04.189Z,12.49
2022-11-18T19:48:31.464Z,12.56
2022-11-18T19:51:14.941Z,12.21
2022-11-18T19:53:42.189Z,11.66
2022-11-18T19:56:11.624Z,11.90
2022-11-18T19:58:40.175Z,11.91
2022-11-18T20:01:16.798Z,12.46
2022-11-18T20:03:45.505Z,12.77
2022-11-18T20:06:12.654Z,13.09
2022-11-18T20:08:41.389Z,13.17
2022-11-18T20:11:10.288Z,13.40
2022-11-18T20:13:38.078Z,12.80
2022-11-18T20:16:51.478Z,12.87
2022-11-18T20:19:18.167Z,13.18
2022-11-18T20:21:44.928Z,13.27
2022-11-18T20:24:16.829Z,13.31
2022-11-18T20:26:44.212Z,13.46
2022-11-18T20:29:11.156Z,13.42
2022-11-18T20:31:46.010Z,13.41
2022-11-18T20:34:25.107Z,13.44
2022-11-18T20:37:03.731Z,13.25
2022-11-18T20:39:54.956Z,12.67
2022-11-18T20:43:02.077Z,12.68
2022-11-18T20:45:28.823Z,12.15
2022-11-18T20:48:02.630Z,11.85
2022-11-18T20:50:40.518Z,12.17
2022-11-18T20:53:20.959Z,12.10
2022-11-18T20:56:05.353Z,11.28
2022-11-18T21:01:40.715Z,12.95
2022-11-18T21:04:18.947Z,13.17
2022-11-18T21:06:49.441Z,13.24
2022-11-18T21:09:22.722Z,13.11
2022-11-18T21:14:45.941Z,12.69
2022-11-18T21:17:24.353Z,13.03
2022-11-18T21:20:25.646Z,13.05
2022-11-18T21:23:02.552Z,12.83
2022-11-18T21:25:45.587Z,13.17
2022-11-18T21:28:23.787Z,13.08
2022-11-18T21:31:01.703Z,13.49
2022-11-18T21:33:37.719Z,13.91
2022-11-18T21:36:10.947Z,13.91
2022-11-18T21:38:37.660Z,13.44
2022-11-18T21:41:05.335Z,14.03
2022-11-18T21:44:03.887Z,13.22
2022-11-18T21:46:33.383Z,13.39
2022-11-18T21:49:06.362Z,13.00
2022-11-18T21:51:36.386Z,13.58
2022-11-18T21:54:08.762Z,13.66
2022-11-18T21:56:37.704Z,13.30
2022-11-18T21:59:10.850Z,13.45
2022-11-18T22:01:40.214Z,13.37
2022-11-18T22:04:07.392Z,13.73
2022-11-18T22:06:36.231Z,13.13
2022-11-18T22:09:10.404Z,13.27
2022-11-18T22:11:39.804Z,12.81
2022-11-18T22:14:12.204Z,12.86
2022-11-18T22:16:39.022Z,12.89
2022-11-18T22:19:08.344Z,13.15
2022-11-18T22:21:35.128Z,12.81
2022-11-18T22:24:03.313Z,13.62
2022-11-18T22:26:31.559Z,13.69
2022-11-18T22:28:58.665Z,13.81
2022-11-18T22:31:27.005Z,13.87
2022-11-18T22:33:54.428Z,13.75
2022-11-18T22:36:23.314Z,13.91
2022-11-18T22:38:50.162Z,13.95
2022-11-18T22:41:44.209Z,14.13
2022-11-18T22:44:14.591Z,13.97
2022-11-18T22:46:43.223Z,14.23
2022-11-18T22:49:11.052Z,13.79
2022-11-18T22:51:38.861Z,14.09
2022-11-18T22:56:56.752Z,13.39
2022-11-18T22:59:23.700Z,13.11
